Bexar, Arkansas
Current Conditions -  °F | °C
As of 2:53 PM on Saturday 20 Dec 2014 (Local Time) from KBPK Reporting Station
Haze Haze  
Wind Chill: 42°   Ceiling: 2300
Heat Index: 42°   Visibility: 6mi
Dew Point: 38°   Wind: 3mph
Humidity: 85%   Direction: 120°ESE
Pressure: 30.2"   Gusts: NA
Location:  36.29°N, 92°W
Report Text: KBPK 202053Z AUTO 12003KT 6SM BR FEW009 OVC023 06/03 A3020 RMK AO2 SLP229 T00560033 56009
Loading
Personal Weather Stations






























Interactive Weather Map New forecast layout! Learn more

10-Day Weather Forecast

Advertisements
Track Severe Weather on mobile